Date,TemperatureHighF,TemperatureAvgF,TemperatureLowF,DewpointHighF,DewpointAvgF,DewpointLowF,HumidityHigh,HumidityAvg,HumidityLow,PressureMaxIn,PressureMinIn,WindSpeedMaxMPH,WindSpeedAvgMPH,GustSpeedMaxMPH,PrecipitationSumIn
2013-7-1,84.4,72.8,60.1,58.5,53.8,49.3,91,54,36,29.98,29.89,15,2,15,0.00
2013-7-2,84.2,70.0,55.0,59.5,52.8,48.3,100,58,36,30.04,29.95,12,2,12,0.00
2013-7-3,84.7,69.6,55.0,56.1,52.9,49.3,93,59,33,30.07,29.95,9,2,10,0.00
2013-7-4,87.8,73.6,57.7,58.7,54.5,49.5,87,54,35,30.04,29.92,9,1,9,0.00
2013-7-5,90.8,75.5,58.8,60.8,56.3,52.6,92,55,34,30.01,29.89,9,1,9,0.00
2013-7-6,89.6,77.4,64.7,64.7,59.9,55.4,92,58,35,29.98,29.89,12,2,12,0.00
2013-7-7,92.5,79.5,65.6,67.2,62.8,60.2,98,60,38,30.04,29.95,10,2,10,0.00
2013-7-8,93.0,81.5,69.8,68.1,64.7,61.4,90,59,38,30.07,29.98,10,2,11,0.00
2013-7-9,94.8,82.3,69.6,67.5,65.3,63.0,91,59,37,30.07,29.92,13,2,13,0.00
2013-7-10,98.8,80.4,69.6,73.0,67.5,64.1,100,70,35,29.98,29.83,17,2,17,0.79
2013-7-11,96.4,81.0,69.1,76.3,69.0,62.9,100,72,37,29.95,29.86,10,1,11,0.00
2013-7-12,88.7,78.3,66.7,67.9,60.6,56.2,82,56,41,30.04,29.92,13,3,13,0.00
2013-7-13,84.5,72.5,57.0,63.7,58.5,54.9,100,65,40,30.04,29.92,7,1,8,0.00
2013-7-14,88.0,75.8,60.4,65.3,59.3,56.4,100,59,37,30.01,29.92,14,2,14,0.00
2013-7-15,90.1,79.8,71.0,66.4,63.9,60.2,81,60,40,30.13,29.98,11,3,14,0.00
2013-7-16,90.7,80.4,69.1,72.1,65.9,62.1,100,64,40,30.22,30.10,14,2,14,0.00
2013-7-17,93.5,81.0,68.0,73.6,64.5,59.4,100,61,37,30.25,30.13,11,2,11,0.00
2013-7-18,96.6,78.9,67.6,70.9,65.2,60.8,100,68,35,30.16,29.95,22,2,22,3.13
2013-7-19,89.4,73.4,68.3,71.2,68.1,62.5,100,86,48,30.04,29.89,9,1,15,0.00
2013-7-20,88.1,76.0,67.8,72.1,66.7,62.7,100,76,46,29.95,29.80,12,2,12,0.71
2013-7-21,89.0,77.6,69.2,71.6,67.4,65.1,93,72,50,29.92,29.80,13,1,13,0.00
2013-7-22,90.8,76.7,67.3,71.9,66.2,59.1,100,73,45,29.95,29.80,13,2,19,0.35
2013-7-23,94.1,77.6,68.7,77.2,69.6,63.0,100,80,47,29.92,29.75,20,3,20,0.39
2013-7-24,89.8,76.8,68.3,70.3,66.1,61.0,100,74,40,29.95,29.78,11,2,11,0.47
2013-7-25,82.9,75.3,68.7,72.5,65.3,60.3,100,74,52,30.04,29.95,10,2,10,0.31
2013-7-26,70.9,68.2,65.3,69.2,64.2,59.7,100,88,73,30.04,29.92,8,2,8,0.71
2013-7-27,86.5,73.3,62.8,70.0,62.3,57.3,100,73,38,29.98,29.89,9,2,9,0.31
2013-7-28,86.5,73.0,62.2,63.4,60.3,53.9,100,67,42,30.01,29.92,9,2,9,0.31
2013-7-29,85.3,75.7,66.2,67.7,63.9,59.8,88,68,53,30.07,29.95,11,3,11,0.31
2013-7-30,84.5,78.0,72.8,72.8,68.2,63.2,95,73,55,30.04,29.95,10,2,10,0.31
2013-7-31,89.8,76.3,71.6,75.0,71.9,67.2,100,88,52,30.01,29.92,15,2,15,1.22